Time;durP1;ratioP1;P1;durP2;ratioP2;P2;SDS_P1;SDS_P2;PMS_P1;PMS_P2;Temp;Humidity;BMP_temperature;BMP_pressure;BME280_temperature;BME280_humidity;BME280_pressure;Samples;Min_cycle;Max_cycle;Signal;HPM_P1;HPM_P2
2022/04/05 00:02:25;;;;;;;8.68;4.90;;;;;;;4.85;72.72;98516.11;1849629;77;21023;-81
2022/04/05 00:04:51;;;;;;;7.47;5.00;;;;;;;4.83;72.79;98524.34;1852518;77;21042;-81
2022/04/05 00:07:18;;;;;;;5.95;4.67;;;;;;;4.85;72.98;98519.15;1852727;77;20980;-91
2022/04/05 00:09:45;;;;;;;5.80;4.85;;;;;;;4.88;73.08;98524.41;1848091;77;22576;-81
2022/04/05 00:12:11;;;;;;;5.95;4.90;;;;;;;4.90;73.18;98521.80;1814197;77;21329;-81
2022/04/05 00:14:38;;;;;;;5.05;4.50;;;;;;;4.95;73.26;98525.34;1813161;77;21051;-81
2022/04/05 00:17:05;;;;;;;5.37;4.28;;;;;;;4.97;73.26;98522.31;1817727;77;21563;-81
2022/04/05 00:19:32;;;;;;;5.83;4.22;;;;;;;4.98;73.22;98526.69;1828523;77;21548;-81
2022/04/05 00:21:59;;;;;;;5.17;3.80;;;;;;;5.01;73.23;98518.88;1808649;77;21770;-81
2022/04/05 00:24:26;;;;;;;4.17;3.37;;;;;;;5.00;73.21;98515.84;1796145;77;21071;-81
2022/04/05 00:26:53;;;;;;;5.37;4.33;;;;;;;5.02;73.32;98525.42;1816326;78;21592;-81
2022/04/05 00:29:22;;;;;;;5.70;4.17;;;;;;;5.05;73.35;98519.39;1801483;77;21083;-81
2022/04/05 00:31:50;;;;;;;4.60;3.80;;;;;;;5.05;73.35;98512.44;1797712;78;21529;-81
2022/04/05 00:34:17;;;;;;;7.70;4.22;;;;;;;5.08;73.39;98502.45;1797454;77;21752;-81
2022/04/05 00:36:45;;;;;;;6.80;4.78;;;;;;;5.10;73.29;98510.30;1797612;77;21112;-81
2022/04/05 00:39:12;;;;;;;8.13;4.47;;;;;;;5.13;73.29;98509.91;1797174;78;21106;-91
2022/04/05 00:41:39;;;;;;;8.93;4.33;;;;;;;5.17;73.30;98511.68;1794312;78;21068;-90
2022/04/05 00:44:05;;;;;;;9.08;4.60;;;;;;;5.20;73.25;98513.03;1819693;78;21075;-81
2022/04/05 00:46:32;;;;;;;7.97;3.90;;;;;;;5.24;73.26;98512.63;1806998;77;21794;-81
2022/04/05 00:49:01;;;;;;;7.60;4.17;;;;;;;5.26;73.14;98514.39;1818142;78;21043;-80
2022/04/05 00:51:27;;;;;;;10.82;4.00;;;;;;;5.30;73.03;98506.16;1820371;77;21072;-81
2022/04/05 00:53:57;;;;;;;10.43;4.37;;;;;;;5.34;72.96;98515.77;1820266;77;21604;-81
2022/04/05 00:56:24;;;;;;;7.55;3.40;;;;;;;5.38;72.94;98510.15;1797669;78;21073;-81
2022/04/05 00:58:53;;;;;;;13.32;3.72;;;;;;;5.42;72.77;98511.52;1797591;78;21725;-81
2022/04/05 01:01:22;;;;;;;10.43;3.75;;;;;;;5.45;72.67;98516.74;1797387;78;21051;-82
2022/04/05 01:03:50;;;;;;;13.25;3.62;;;;;;;5.47;72.58;98525.89;1802219;77;21024;-91
2022/04/05 01:06:25;;;;;;;15.55;3.47;;;;;;;5.50;72.39;98524.63;1825094;77;21064;-81
2022/04/05 01:08:53;;;;;;;9.83;3.65;;;;;;;5.53;72.29;98518.12;1802254;77;21132;-81
2022/04/05 01:11:20;;;;;;;14.65;3.42;;;;;;;5.55;72.29;98521.61;1797820;78;22924;-82
2022/04/05 01:13:47;;;;;;;12.55;3.42;;;;;;;5.57;72.20;98539.46;1799874;77;21059;-82
2022/04/05 01:16:15;;;;;;;13.03;3.47;;;;;;;5.61;72.12;98545.58;1812390;78;21076;-81
2022/04/05 01:18:42;;;;;;;10.55;2.98;;;;;;;5.62;72.14;98547.34;1796877;77;21113;-82
2022/04/05 01:21:09;;;;;;;11.95;3.52;;;;;;;5.63;72.15;98548.67;1834168;76;21053;-82
2022/04/05 01:23:37;;;;;;;10.78;3.52;;;;;;;5.63;72.10;98546.06;1819141;77;21096;-81
2022/04/05 01:26:04;;;;;;;13.50;3.90;;;;;;;5.61;72.01;98550.40;1819434;77;21043;-80
2022/04/05 01:28:31;;;;;;;10.63;3.40;;;;;;;5.59;72.02;98552.53;1834601;77;21018;-81
2022/04/05 01:30:58;;;;;;;10.85;2.98;;;;;;;5.58;72.14;98556.02;1819600;77;21343;-81
2022/04/05 01:33:25;;;;;;;10.80;3.25;;;;;;;5.57;72.16;98553.81;1814503;77;21035;-81
2022/04/05 01:35:52;;;;;;;10.63;3.27;;;;;;;5.55;72.20;98553.36;1840262;77;21910;-81
2022/04/05 01:38:18;;;;;;;9.33;2.60;;;;;;;5.53;72.10;98558.56;1819124;77;21013;-81
2022/04/05 01:40:47;;;;;;;10.50;2.58;;;;;;;5.50;72.03;98557.25;1835919;77;21501;-91
2022/04/05 01:43:13;;;;;;;11.30;2.50;;;;;;;5.45;72.01;98563.70;1851116;75;21253;-82
2022/04/05 01:45:43;;;;;;;7.75;2.12;;;;;;;5.43;72.05;98557.60;1849705;75;21006;-82
2022/04/05 01:48:10;;;;;;;9.73;2.08;;;;;;;5.42;71.97;98565.41;1794882;79;21766;-81
2022/04/05 01:50:36;;;;;;;11.28;3.22;;;;;;;5.38;71.92;98571.45;1852856;77;21023;-81
2022/04/05 01:53:03;;;;;;;12.30;2.92;;;;;;;5.33;71.97;98576.64;1826856;77;21043;-81
2022/04/05 01:55:32;;;;;;;12.15;2.65;;;;;;;5.29;71.97;98574.83;1850943;77;21058;-81
2022/04/05 01:58:01;;;;;;;10.75;2.85;;;;;;;5.25;71.97;98575.25;1853154;77;20983;-81
2022/04/05 02:00:28;;;;;;;14.83;2.92;;;;;;;5.25;72.01;98574.35;1846306;77;22719;-81
2022/04/05 02:02:54;;;;;;;10.63;2.58;;;;;;;5.20;71.88;98580.84;1836257;77;21535;-81
2022/04/05 02:05:24;;;;;;;10.08;2.77;;;;;;;5.15;71.98;98590.77;1845184;77;21055;-81
2022/04/05 02:07:51;;;;;;;12.43;2.60;;;;;;;5.11;72.00;98583.34;1832917;77;21246;-81
2022/04/05 02:10:17;;;;;;;6.03;2.10;;;;;;;5.04;71.91;98584.11;1823591;77;21083;-81
2022/04/05 02:12:45;;;;;;;5.50;1.85;;;;;;;4.99;72.04;98600.13;1817779;77;21631;-81
2022/04/05 02:15:12;;;;;;;6.37;2.08;;;;;;;4.94;72.07;98594.00;1818898;77;21260;-81
2022/04/05 02:17:39;;;;;;;9.53;2.08;;;;;;;4.90;72.06;98593.08;1840096;77;21054;-81
2022/04/05 02:20:08;;;;;;;10.13;2.35;;;;;;;4.85;72.01;98588.22;1834064;77;21042;-82
2022/04/05 02:22:37;;;;;;;8.08;2.25;;;;;;;4.80;72.04;98595.96;1830316;77;21045;-82
2022/04/05 02:25:04;;;;;;;8.15;2.08;;;;;;;4.77;72.22;98592.03;1827326;77;22528;-82
2022/04/05 02:27:31;;;;;;;9.48;2.62;;;;;;;4.78;72.32;98591.16;1828587;77;20990;-92
2022/04/05 02:29:58;;;;;;;15.58;2.92;;;;;;;4.78;72.41;98582.04;1829633;77;21049;-92
2022/04/05 02:32:25;;;;;;;11.97;2.58;;;;;;;4.77;72.24;98578.14;1829410;77;21167;-91
2022/04/05 02:34:51;;;;;;;15.80;2.30;;;;;;;4.67;71.96;98588.44;1828481;77;21009;-92
2022/04/05 02:37:18;;;;;;;10.63;2.47;;;;;;;4.64;71.91;98586.21;1827212;77;21912;-82
2022/04/05 02:39:45;;;;;;;15.72;3.17;;;;;;;4.59;71.92;98581.35;1836087;77;21074;-82
2022/04/05 02:42:12;;;;;;;14.03;2.70;;;;;;;4.58;72.03;98582.19;1842008;77;21038;-82
2022/04/05 02:44:39;;;;;;;15.65;2.60;;;;;;;4.59;72.09;98576.14;1832890;77;21026;-82
2022/04/05 02:47:10;;;;;;;18.95;3.40;;;;;;;4.57;72.06;98577.85;1850206;77;21100;-82
2022/04/05 02:49:34;;;;;;;17.95;3.92;;;;;;;4.57;71.95;98583.94;1829524;77;21762;-82
2022/04/05 02:52:02;;;;;;;15.72;2.95;;;;;;;4.51;71.76;98590.37;1858734;77;21003;-82
2022/04/05 02:54:29;;;;;;;22.77;3.17;;;;;;;4.46;71.70;98581.60;1844301;77;21053;-82
2022/04/05 02:56:56;;;;;;;26.10;3.47;;;;;;;4.46;71.61;98584.20;1852280;77;21087;-82
2022/04/05 02:59:23;;;;;;;18.60;4.03;;;;;;;4.45;71.39;98582.47;1825209;77;21067;-81
2022/04/05 03:01:50;;;;;;;17.82;3.00;;;;;;;4.46;71.30;98590.72;1845359;75;21766;-81
2022/04/05 03:04:17;;;;;;;14.98;3.22;;;;;;;4.48;71.15;98590.31;1827411;77;21076;-82
2022/04/05 03:06:43;;;;;;;18.17;3.45;;;;;;;4.48;70.85;98592.48;1827114;77;20995;-80
2022/04/05 03:09:10;;;;;;;11.55;3.05;;;;;;;4.51;70.65;98594.71;1825764;77;21110;-90
2022/04/05 03:11:37;;;;;;;19.32;3.35;;;;;;;4.54;70.51;98602.55;1825245;77;21037;-90
2022/04/05 03:14:04;;;;;;;20.27;3.62;;;;;;;4.56;70.34;98609.95;1840913;77;21780;-89
2022/04/05 03:16:31;;;;;;;19.37;3.15;;;;;;;4.56;70.29;98616.06;1828056;77;21287;-80
2022/04/05 03:18:58;;;;;;;15.53;2.75;;;;;;;4.60;70.33;98619.60;1828191;77;21034;-80
2022/04/05 03:21:25;;;;;;;13.58;3.10;;;;;;;4.59;70.34;98614.79;1824412;77;21070;-80
2022/04/05 03:23:51;;;;;;;17.50;3.10;;;;;;;4.54;70.30;98619.48;1831958;77;21528;-81
2022/04/05 03:26:18;;;;;;;15.23;3.60;;;;;;;4.48;70.40;98610.72;1817373;77;21865;-81
2022/04/05 03:28:46;;;;;;;12.55;3.15;;;;;;;4.42;70.49;98625.40;1818745;77;21010;-91
2022/04/05 03:31:13;;;;;;;19.07;3.25;;;;;;;4.36;70.50;98620.10;1819842;77;21034;-81
2022/04/05 03:33:40;;;;;;;15.75;3.25;;;;;;;4.29;70.60;98623.02;1838252;77;21016;-80
2022/04/05 03:36:06;;;;;;;14.15;2.80;;;;;;;4.26;70.78;98617.35;1828035;77;21020;-81
2022/04/05 03:38:33;;;;;;;15.18;3.15;;;;;;;4.25;70.74;98620.79;1836423;77;21794;-80
2022/04/05 03:41:02;;;;;;;15.20;3.27;;;;;;;4.25;70.89;98619.48;1811026;77;21042;-81
2022/04/05 03:43:29;;;;;;;13.28;3.00;;;;;;;4.29;70.97;98623.02;1820306;77;21004;-90
2022/04/05 03:45:56;;;;;;;15.55;3.12;;;;;;;4.34;70.97;98619.20;1820440;77;21073;-88
2022/04/05 03:48:22;;;;;;;19.92;3.90;;;;;;;4.36;71.05;98622.70;1833645;77;21508;-88
2022/04/05 03:50:49;;;;;;;16.48;3.35;;;;;;;4.38;71.06;98624.47;1816631;77;21800;-88
2022/04/05 03:53:16;;;;;;;11.88;3.30;;;;;;;4.41;70.98;98615.41;1820606;77;21002;-89
2022/04/05 03:55:43;;;;;;;13.45;2.83;;;;;;;4.44;70.99;98628.46;1824357;77;21023;-82
2022/04/05 03:58:12;;;;;;;19.15;3.52;;;;;;;4.46;70.99;98632.40;1837148;77;21055;-79
2022/04/05 04:00:38;;;;;;;12.28;2.75;;;;;;;4.45;71.10;98629.36;1820827;77;21767;-90
2022/04/05 04:03:07;;;;;;;12.53;3.12;;;;;;;4.46;71.09;98631.97;1852978;75;21557;-87
2022/04/05 04:05:34;;;;;;;14.38;2.90;;;;;;;4.44;71.12;98627.16;1844157;75;21058;-81
2022/04/05 04:08:00;;;;;;;11.75;2.90;;;;;;;4.43;71.10;98628.44;1842977;75;21031;-90
2022/04/05 04:10:27;;;;;;;16.25;3.00;;;;;;;4.42;71.19;98637.98;1844239;77;21163;-82
2022/04/05 04:12:54;;;;;;;12.60;2.50;;;;;;;4.40;71.20;98630.58;1847939;77;20999;-92
2022/04/05 04:15:21;;;;;;;8.10;2.60;;;;;;;4.38;71.19;98628.37;1844460;77;21725;-82
2022/04/05 04:17:47;;;;;;;13.40;2.27;;;;;;;4.36;71.31;98627.48;1846870;77;20971;-86
2022/04/05 04:20:14;;;;;;;9.33;2.02;;;;;;;4.35;71.44;98632.22;1853345;77;21026;-85
2022/04/05 04:22:41;;;;;;;11.78;2.72;;;;;;;4.35;71.47;98632.66;1853430;76;21027;-85
2022/04/05 04:25:09;;;;;;;13.50;2.77;;;;;;;4.36;71.57;98635.30;1852930;77;21011;-79
2022/04/05 04:27:36;;;;;;;7.10;2.20;;;;;;;4.34;71.54;98638.30;1845862;75;23213;-82
2022/04/05 04:30:03;;;;;;;9.95;2.33;;;;;;;4.31;71.62;98642.15;1844413;75;21093;-79
2022/04/05 04:32:30;;;;;;;12.47;3.20;;;;;;;4.33;71.78;98646.95;1800168;79;21095;-85
2022/04/05 04:34:57;;;;;;;10.23;2.77;;;;;;;4.37;71.79;98645.28;1849176;75;21050;-80
2022/04/05 04:37:24;;;;;;;8.28;2.30;;;;;;;4.36;71.82;98657.87;1852677;75;21776;-82
2022/04/05 04:39:51;;;;;;;5.67;2.00;;;;;;;4.37;71.85;98664.81;1848991;77;22561;-80
2022/04/05 04:42:17;;;;;;;10.45;2.47;;;;;;;4.39;71.88;98667.91;1808406;77;20999;-90
2022/04/05 04:44:44;;;;;;;9.78;2.40;;;;;;;4.39;71.94;98667.91;1844173;75;21018;-80
2022/04/05 04:47:11;;;;;;;11.75;2.62;;;;;;;4.40;71.98;98670.08;1833345;77;21116;-85
2022/04/05 04:49:37;;;;;;;6.60;2.47;;;;;;;4.40;72.00;98677.90;1826056;75;21149;-81
2022/04/05 04:52:04;;;;;;;5.53;2.12;;;;;;;4.40;71.99;98681.38;1841791;75;21693;-88
2022/04/05 04:54:31;;;;;;;6.58;2.20;;;;;;;4.38;72.00;98681.77;1845567;75;21026;-89
2022/04/05 04:56:58;;;;;;;9.80;2.65;;;;;;;4.40;72.09;98689.19;1840150;77;21105;-87
2022/04/05 04:59:25;;;;;;;12.07;2.80;;;;;;;4.45;72.15;98694.05;1841862;75;21500;-79
2022/04/05 05:01:52;;;;;;;10.70;2.67;;;;;;;4.48;72.16;98699.30;1843390;75;21033;-78
2022/04/05 05:04:19;;;;;;;7.03;2.70;;;;;;;4.49;72.13;98708.01;1832638;77;21777;-87
2022/04/05 05:06:45;;;;;;;8.75;2.17;;;;;;;4.52;72.13;98704.56;1793995;75;21010;-89
2022/04/05 05:09:12;;;;;;;11.48;3.67;;;;;;;4.53;72.08;98703.73;1844071;75;21041;-80
2022/04/05 05:11:39;;;;;;;18.27;3.80;;;;;;;4.53;72.06;98711.55;1840435;75;21000;-78
2022/04/05 05:14:06;;;;;;;6.17;2.22;;;;;;;4.51;72.04;98712.81;1822269;77;21604;-88
2022/04/05 05:16:33;;;;;;;8.65;3.00;;;;;;;4.53;72.11;98715.02;1848800;77;21704;-78
2022/04/05 05:19:07;;;;;;;13.13;2.75;;;;;;;4.56;72.17;98703.75;1803897;77;21058;-79
2022/04/05 05:21:47;;;;;;;12.40;2.72;;;;;;;4.63;72.20;98705.61;1750671;80;21056;-80
2022/04/05 05:24:15;;;;;;;11.55;3.22;;;;;;;4.66;72.15;98705.67;1764308;80;21057;-80
2022/04/05 05:26:42;;;;;;;12.37;2.70;;;;;;;4.61;72.07;98714.70;1796513;78;21113;-80
2022/04/05 05:29:08;;;;;;;9.60;2.83;;;;;;;4.61;72.07;98717.31;1789613;79;21951;-79
2022/04/05 05:31:35;;;;;;;7.15;2.58;;;;;;;4.61;72.05;98726.43;1786765;79;21077;-78
2022/04/05 05:34:02;;;;;;;7.50;2.42;;;;;;;4.62;72.09;98723.42;1788140;79;21071;-79
2022/04/05 05:36:29;;;;;;;6.85;2.10;;;;;;;4.64;72.12;98733.00;1800975;78;21053;-79
2022/04/05 05:38:56;;;;;;;8.68;2.87;;;;;;;4.70;72.16;98741.34;1795697;78;21911;-87
2022/04/05 05:41:22;;;;;;;6.78;2.47;;;;;;;4.73;72.08;98736.20;1816646;78;21777;-84
2022/04/05 05:43:49;;;;;;;14.75;3.33;;;;;;;4.77;72.01;98747.55;1789224;79;21068;-80
2022/04/05 05:46:16;;;;;;;12.70;3.60;;;;;;;4.84;72.08;98750.67;1782937;80;21066;-79
2022/04/05 05:48:43;;;;;;;13.53;6.33;;;;;;;4.92;71.88;98758.61;1799305;78;21542;-79
2022/04/05 05:51:10;;;;;;;12.82;3.90;;;;;;;4.91;71.69;98759.05;1807281;78;21073;-79
2022/04/05 05:53:37;;;;;;;17.73;7.45;;;;;;;4.94;71.66;98766.93;1789297;79;21789;-88
2022/04/05 05:56:04;;;;;;;40.25;18.27;;;;;;;4.99;71.69;98762.67;1789851;80;21764;-79
2022/04/05 05:58:31;;;;;;;12.68;5.40;;;;;;;5.04;71.64;98780.98;1758935;78;21126;-79
2022/04/05 06:00:58;;;;;;;10.30;3.80;;;;;;;5.08;71.64;98781.47;1776723;79;21167;-79
2022/04/05 06:03:25;;;;;;;8.53;3.47;;;;;;;5.10;71.53;98786.72;1795400;79;21077;-79
2022/04/05 06:05:52;;;;;;;6.15;2.42;;;;;;;5.11;71.59;98796.31;1764849;79;21748;-79
2022/04/05 06:08:19;;;;;;;6.15;2.50;;;;;;;5.14;71.48;98801.11;1765309;79;21053;-89
2022/04/05 06:10:47;;;;;;;8.25;3.12;;;;;;;5.16;71.42;98814.19;1795762;79;21069;-88
2022/04/05 06:13:13;;;;;;;5.35;2.33;;;;;;;5.18;71.43;98813.38;1797662;79;21134;-88
2022/04/05 06:15:40;;;;;;;6.62;2.65;;;;;;;5.19;71.38;98822.94;1770180;79;21026;-88
2022/04/05 06:18:07;;;;;;;6.15;2.65;;;;;;;5.23;71.46;98833.86;1765810;79;21746;-87
2022/04/05 06:20:34;;;;;;;5.37;2.40;;;;;;;5.32;71.47;98838.79;1765988;79;21041;-88
2022/04/05 06:23:03;;;;;;;8.43;3.20;;;;;;;5.39;71.42;98841.95;1725062;81;20999;-88
2022/04/05 06:25:36;;;;;;;44.55;19.92;;;;;;;5.53;71.29;98844.31;1741034;81;21083;-88
2022/04/05 06:28:09;;;;;;;10.43;4.53;;;;;;;5.63;71.19;98853.14;1726787;82;21077;-89
2022/04/05 06:30:38;;;;;;;8.88;3.58;;;;;;;5.76;71.07;98852.89;1740797;81;22145;-88
2022/04/05 06:33:24;;;;;;;11.43;5.05;;;;;;;5.85;70.87;98850.41;1742134;81;21049;-88
2022/04/05 06:35:58;;;;;;;8.78;4.58;;;;;;;5.94;70.85;98854.45;1762579;81;21010;-88
2022/04/05 06:38:26;;;;;;;8.90;4.37;;;;;;;6.02;70.65;98856.78;1749914;81;21060;-88
2022/04/05 06:40:54;;;;;;;9.93;6.00;;;;;;;6.06;70.46;98869.86;1752874;81;21629;-79
2022/04/05 06:43:24;;;;;;;7.40;3.83;;;;;;;6.18;70.57;98871.34;1730365;81;21733;-79
2022/04/05 06:45:52;;;;;;;16.27;7.33;;;;;;;6.37;70.61;98875.91;1740745;80;21081;-78
2022/04/05 06:48:19;;;;;;;14.83;6.35;;;;;;;6.52;70.51;98883.05;1757599;80;21534;-79
2022/04/05 06:50:46;;;;;;;9.18;4.80;;;;;;;6.58;70.03;98880.94;1729917;82;21030;-80
2022/04/05 06:53:13;;;;;;;6.87;3.15;;;;;;;6.61;69.71;98885.77;1723939;81;21090;-78
2022/04/05 06:55:40;;;;;;;6.03;1.90;;;;;;;6.63;69.02;98898.86;1726953;81;21738;-89
2022/04/05 06:58:08;;;;;;;7.55;3.25;;;;;;;6.68;68.90;98897.19;1719041;83;21098;-88
2022/04/05 07:00:36;;;;;;;8.50;4.22;;;;;;;6.87;68.93;98913.04;1744153;82;21117;-79
2022/04/05 07:03:03;;;;;;;9.80;4.80;;;;;;;6.94;68.74;98913.12;1777212;80;21050;-78
2022/04/05 07:05:29;;;;;;;6.03;2.80;;;;;;;6.96;68.50;98913.14;1754220;80;21083;-79
2022/04/05 07:08:08;;;;;;;7.40;3.17;;;;;;;6.98;68.43;98924.08;1739683;80;21730;-79
2022/04/05 07:10:37;;;;;;;5.75;2.83;;;;;;;7.04;68.26;98934.14;1752874;81;21207;-88
2022/04/05 07:13:08;;;;;;;5.50;2.75;;;;;;;6.95;68.14;98930.58;1755880;81;21147;-88
2022/04/05 07:15:35;;;;;;;6.47;3.10;;;;;;;6.99;68.15;98931.48;1754854;81;21045;-88
2022/04/05 07:18:02;;;;;;;6.37;2.83;;;;;;;6.97;68.07;98938.45;1748576;81;21048;-88
2022/04/05 07:20:29;;;;;;;37.00;21.75;;;;;;;7.02;68.16;98942.00;1731716;81;21806;-88
2022/04/05 07:22:56;;;;;;;7.47;3.40;;;;;;;7.07;67.80;98948.56;1759149;79;21026;-88
2022/04/05 07:25:24;;;;;;;8.40;3.45;;;;;;;7.10;67.59;98952.53;1771758;79;21065;-87
2022/04/05 07:27:51;;;;;;;4.65;2.20;;;;;;;7.02;67.52;98956.38;1765399;81;21536;-87
2022/04/05 07:30:18;;;;;;;7.70;2.50;;;;;;;6.91;67.11;98958.01;1735835;81;21029;-88
2022/04/05 07:32:45;;;;;;;7.05;2.72;;;;;;;6.78;66.76;98964.84;1771621;79;21774;-87
2022/04/05 07:35:16;;;;;;;4.45;2.08;;;;;;;6.67;67.03;98963.39;1765112;79;21042;-81
2022/04/05 07:37:45;;;;;;;1.85;1.02;;;;;;;6.64;66.36;98967.27;1790797;78;21037;-87
2022/04/05 07:40:12;;;;;;;3.67;0.90;;;;;;;6.53;64.41;99002.45;1793310;79;21644;-80
2022/04/05 07:42:44;;;;;;;2.25;0.78;;;;;;;6.40;63.84;98977.88;1802942;78;21000;-79
2022/04/05 07:45:12;;;;;;;0.78;0.70;;;;;;;6.50;63.17;98992.38;1802760;78;21813;-79
2022/04/05 07:47:39;;;;;;;1.47;0.80;;;;;;;6.53;62.76;98990.69;1783514;79;21566;-88
2022/04/05 07:50:07;;;;;;;1.67;0.88;;;;;;;6.47;62.46;98998.42;1760654;80;21073;-79
2022/04/05 07:52:33;;;;;;;2.80;1.00;;;;;;;6.40;61.89;99000.09;1783201;79;21102;-89
2022/04/05 07:55:00;;;;;;;5.15;1.00;;;;;;;6.27;61.85;98995.97;1793000;79;21145;-89
2022/04/05 07:57:29;;;;;;;1.00;0.68;;;;;;;6.19;61.94;99016.77;1798909;78;21082;-86
2022/04/05 07:59:58;;;;;;;3.08;1.17;;;;;;;6.11;61.80;99017.09;1805851;79;21100;-86
2022/04/05 08:02:24;;;;;;;2.65;0.98;;;;;;;6.14;62.44;99018.02;1810539;79;21077;-79
2022/04/05 08:04:51;;;;;;;2.92;1.00;;;;;;;6.22;62.22;99020.73;1784163;78;21150;-79
2022/04/05 08:07:18;;;;;;;4.60;1.15;;;;;;;6.46;62.52;99031.97;1767326;78;21080;-88
2022/04/05 08:09:45;;;;;;;1.92;1.10;;;;;;;6.76;62.11;99044.56;1760444;79;22455;-77
2022/04/05 08:12:11;;;;;;;2.83;1.22;;;;;;;7.09;62.01;99038.41;1787621;79;21066;-85
2022/04/05 08:14:38;;;;;;;4.37;1.30;;;;;;;7.33;61.26;99043.05;1779784;78;21224;-78
2022/04/05 08:17:06;;;;;;;1.72;1.07;;;;;;;7.41;60.63;99042.68;1804867;78;22223;-78
2022/04/05 08:19:47;;;;;;;2.25;0.90;;;;;;;7.60;60.76;99063.37;1757082;79;21067;-80
2022/04/05 08:22:15;;;;;;;1.52;1.00;;;;;;;7.79;60.14;99059.21;1770581;80;21782;-79
2022/04/05 08:24:42;;;;;;;2.37;0.88;;;;;;;7.63;58.91;99058.17;1774451;78;21027;-88
2022/04/05 08:27:09;;;;;;;1.92;0.90;;;;;;;7.57;57.83;99066.84;1786650;78;21213;-81
2022/04/05 08:29:41;;;;;;;3.12;0.90;;;;;;;7.46;58.15;99066.30;1771396;78;21097;-90
2022/04/05 08:32:07;;;;;;;4.85;2.02;;;;;;;7.56;59.08;99071.66;1767381;80;21121;-80
2022/04/05 08:34:35;;;;;;;4.40;1.40;;;;;;;7.85;59.52;99088.08;1771483;79;22583;-88
2022/04/05 08:37:02;;;;;;;1.32;0.90;;;;;;;8.18;59.03;99083.97;1788026;79;21049;-88
2022/04/05 08:39:31;;;;;;;0.82;0.72;;;;;;;8.30;57.71;99076.21;1806089;79;21073;-90
2022/04/05 08:42:01;;;;;;;2.00;0.90;;;;;;;8.25;57.50;99073.98;1795082;79;21125;-78
2022/04/05 08:44:28;;;;;;;2.42;0.95;;;;;;;8.23;57.67;99078.34;1751607;80;21835;-88
2022/04/05 08:46:54;;;;;;;2.33;1.17;;;;;;;8.02;57.01;99088.22;1801772;79;22591;-80
2022/04/05 08:49:21;;;;;;;3.60;1.05;;;;;;;7.84;57.40;99085.44;1835763;77;21586;-80
2022/04/05 08:51:49;;;;;;;1.70;1.00;;;;;;;7.86;57.38;99097.67;1857599;75;21050;-80
2022/04/05 08:54:16;;;;;;;1.90;1.22;;;;;;;7.98;57.25;99091.69;1845338;76;21015;-91
2022/04/05 08:56:42;;;;;;;1.98;1.12;;;;;;;8.05;57.01;99097.44;1840514;77;21077;-78
2022/04/05 08:59:09;;;;;;;1.75;1.00;;;;;;;8.18;56.90;99116.32;1841009;75;21643;-88
2022/04/05 09:01:36;;;;;;;2.33;1.10;;;;;;;8.42;56.53;99126.56;1838836;77;21038;-80
2022/04/05 09:04:04;;;;;;;1.37;0.75;;;;;;;8.71;56.54;99128.09;1845200;75;21003;-80
2022/04/05 09:06:33;;;;;;;1.37;0.90;;;;;;;8.82;55.29;99137.77;1843435;75;21145;-79
2022/04/05 09:09:11;;;;;;;5.37;1.20;;;;;;;8.80;54.48;99119.38;1845173;77;20983;-91
2022/04/05 09:11:53;;;;;;;1.65;1.20;;;;;;;8.74;54.90;99125.91;1800892;79;22683;-87
2022/04/05 09:14:29;;;;;;;1.50;1.00;;;;;;;8.69;54.29;99131.55;1843357;75;21072;-87
2022/04/05 09:17:14;;;;;;;3.37;1.15;;;;;;;8.72;54.85;99136.84;1750773;81;21045;-88
2022/04/05 09:19:49;;;;;;;2.80;1.40;;;;;;;8.68;54.60;99158.23;1829769;77;21166;-86
2022/04/05 09:22:17;;;;;;;2.00;1.00;;;;;;;8.41;54.45;99171.09;1841689;77;20999;-88
2022/04/05 09:24:44;;;;;;;8.60;5.10;;;;;;;8.23;55.14;99182.31;1791003;78;21813;-88
2022/04/05 09:27:11;;;;;;;2.92;1.45;;;;;;;8.17;55.53;99170.90;1819858;78;21115;-88
2022/04/05 09:29:42;;;;;;;4.40;2.27;;;;;;;8.34;56.14;99179.36;1804060;78;21041;-79
2022/04/05 09:32:10;;;;;;;3.05;1.50;;;;;;;8.68;56.65;99180.53;1802235;78;21130;-80
2022/04/05 09:34:49;;;;;;;5.33;1.90;;;;;;;9.10;55.95;99174.23;1788093;78;21102;-79
2022/04/05 09:37:18;;;;;;;5.30;2.47;;;;;;;9.34;55.74;99176.98;1812412;78;21786;-88
2022/04/05 09:39:45;;;;;;;3.33;2.20;;;;;;;9.62;56.12;99186.30;1788036;78;21601;-88
2022/04/05 09:42:12;;;;;;;3.30;2.10;;;;;;;9.66;54.71;99188.50;1811839;78;21491;-88
2022/04/05 09:44:43;;;;;;;3.10;1.10;;;;;;;9.49;53.52;99183.18;1786738;78;21546;-89
2022/04/05 09:47:18;;;;;;;1.22;0.70;;;;;;;9.36;53.30;99195.81;1799402;78;21052;-88
2022/04/05 09:49:47;;;;;;;5.80;0.90;;;;;;;9.25;52.29;99191.81;1787612;78;22741;-88
2022/04/05 09:52:30;;;;;;;3.52;1.10;;;;;;;9.08;51.97;99205.71;1812224;78;21080;-80
2022/04/05 09:55:14;;;;;;;1.75;0.80;;;;;;;8.87;52.27;99213.46;1765255;78;21084;-79
2022/04/05 09:57:41;;;;;;;2.87;1.10;;;;;;;8.44;51.97;99209.19;1802440;78;21053;-80
2022/04/05 10:00:18;;;;;;;2.27;1.02;;;;;;;8.10;52.77;99218.00;1797355;78;21045;-80
2022/04/05 10:03:08;;;;;;;1.12;0.82;;;;;;;8.08;51.63;99226.28;1813702;78;22518;-79
2022/04/05 10:05:36;;;;;;;1.50;0.70;;;;;;;8.13;51.04;99225.47;1817027;77;20993;-80
2022/04/05 10:08:06;;;;;;;2.47;0.90;;;;;;;8.35;50.98;99216.08;1818497;78;20981;-80
2022/04/05 10:10:35;;;;;;;1.12;0.80;;;;;;;8.60;50.40;99232.06;1798651;78;21056;-80
2022/04/05 10:13:02;;;;;;;1.10;0.85;;;;;;;8.67;49.21;99233.88;1803146;78;21077;-88
2022/04/05 10:15:29;;;;;;;1.15;0.70;;;;;;;8.75;49.36;99232.18;1788779;78;21805;-88
2022/04/05 10:18:00;;;;;;;2.25;1.72;;;;;;;8.89;49.10;99239.27;1800952;77;22253;-89
2022/04/05 10:20:28;;;;;;;2.65;1.00;;;;;;;9.04;48.81;99245.94;1810559;78;21087;-80
2022/04/05 10:23:01;;;;;;;2.12;0.88;;;;;;;9.07;48.26;99248.59;1820726;77;21624;-90
2022/04/05 10:25:27;;;;;;;1.27;0.78;;;;;;;8.86;47.41;99257.20;1776827;78;21536;-89
2022/04/05 10:27:54;;;;;;;1.92;0.93;;;;;;;8.59;47.57;99262.20;1766887;78;21818;-79
2022/04/05 10:30:35;;;;;;;3.02;1.25;;;;;;;8.40;47.96;99257.19;1807734;77;21011;-80
2022/04/05 10:33:25;;;;;;;2.02;0.78;;;;;;;8.30;47.99;99266.27;1786810;78;21067;-90
2022/04/05 10:35:57;;;;;;;1.65;0.90;;;;;;;8.12;48.16;99279.17;1761757;77;21564;-81
2022/04/05 10:38:29;;;;;;;2.00;1.00;;;;;;;7.85;48.70;99275.38;1776868;78;21295;-89
2022/04/05 10:41:20;;;;;;;1.72;1.10;;;;;;;7.69;48.69;99276.91;1808921;79;22495;-89
2022/04/05 10:44:08;;;;;;;2.17;1.00;;;;;;;7.67;48.89;99277.31;1821073;78;21058;-89
2022/04/05 10:46:54;;;;;;;4.30;1.37;;;;;;;7.75;48.88;99285.27;1804970;77;21011;-87
2022/04/05 10:49:40;;;;;;;1.60;1.17;;;;;;;7.94;48.59;99282.04;1841214;75;21089;-88
2022/04/05 10:52:15;;;;;;;2.37;1.12;;;;;;;8.26;48.51;99289.39;1846167;77;21016;-87
2022/04/05 10:54:54;;;;;;;5.53;1.40;;;;;;;8.62;48.47;99289.34;1820776;77;21808;-80
2022/04/05 10:57:35;;;;;;;2.55;0.90;;;;;;;8.98;48.04;99288.34;1845148;75;21003;-80
2022/04/05 11:00:15;;;;;;;4.37;0.85;;;;;;;9.14;47.16;99288.88;1847427;75;20928;-79
2022/04/05 11:02:47;;;;;;;1.65;0.98;;;;;;;9.07;45.52;99306.34;1806547;79;21104;-79
2022/04/05 11:05:19;;;;;;;1.85;1.10;;;;;;;8.88;44.86;99307.94;1828056;75;21132;-79
2022/04/05 11:08:00;;;;;;;3.05;1.10;;;;;;;8.64;44.18;99316.46;1849700;75;22270;-80
2022/04/05 11:10:38;;;;;;;2.65;1.37;;;;;;;8.58;43.09;99316.81;1837192;75;21594;-80
2022/04/05 11:13:12;;;;;;;3.00;1.72;;;;;;;8.64;43.75;99321.70;1843937;77;21846;-89
2022/04/05 11:15:50;;;;;;;1.25;0.70;;;;;;;8.80;43.68;99319.22;1828521;76;21124;-80
2022/04/05 11:18:20;;;;;;;2.12;1.20;;;;;;;8.95;43.56;99319.35;1809654;77;21089;-80
2022/04/05 11:20:48;;;;;;;2.65;0.70;;;;;;;9.10;43.54;99331.31;1847434;75;22461;-80
2022/04/05 11:23:18;;;;;;;0.70;0.68;;;;;;;9.06;42.28;99330.81;1846128;75;21358;-87
2022/04/05 11:26:25;;;;;;;1.70;0.98;;;;;;;8.98;42.03;99331.20;1837468;77;21344;-86
2022/04/05 11:28:52;;;;;;;4.55;1.27;;;;;;;8.86;42.52;99333.70;1840371;77;21085;-87
2022/04/05 11:31:37;;;;;;;3.72;1.30;;;;;;;8.77;42.75;99335.83;1821137;78;20991;-80
2022/04/05 11:34:37;;;;;;;0.60;0.60;;;;;;;8.71;42.66;99341.89;1827328;77;21797;-87
2022/04/05 11:37:05;;;;;;;1.22;0.70;;;;;;;8.56;41.73;99372.78;1781421;78;21129;-88
2022/04/05 11:39:37;;;;;;;2.02;1.20;;;;;;;8.42;41.74;99353.81;1739704;82;21157;-80
2022/04/05 11:42:04;;;;;;;1.87;0.78;;;;;;;8.42;41.66;99369.55;1737052;80;21117;-80
2022/04/05 11:44:32;;;;;;;1.35;1.00;;;;;;;8.33;40.26;99360.70;1737810;80;21169;-80
2022/04/05 11:47:01;;;;;;;1.57;0.80;;;;;;;8.21;40.84;99378.88;1743438;80;21648;-79
2022/04/05 11:49:28;;;;;;;1.47;0.90;;;;;;;8.13;40.53;99380.54;1719062;82;21186;-80